Terminal Aerodrome Forecast
Issued by NWS Albany, NY

Home | Current Version | Previous Version | Text Only | Print | Product List | Glossary On
Versions: 1 2 3 4 5 6 7 8 9 10 11 12 13 14 15 16 17
000
FTUS41 KALY 282322
TAFGFL
TAF
KGFL 282322Z 2900/2924 36007KT P6SM VCTS SCT060 BKN090CB
     FM290100 00000KT P6SM VCSH SCT080 BKN200
     FM290900 03003KT 5SM -RA BR OVC050
     FM291500 04005KT P6SM VCSH BKN050 OVC150
     FM291900 05008KT P6SM SCT050 BKN200=

USA.gov is the U.S. government's official web portal to all federal, state and local government web resources and services.